Alpha, Minnesota
Current Conditions -  °F | °C
As of 12:13 PM on Sunday 25 Jan 2015 (Local Time) from KMJQ Reporting Station
Overcast Overcast  
Wind Chill: 21°   Ceiling: 700
Heat Index: 30°   Visibility: 10mi
Dew Point: 27°   Wind: 10mph
Humidity: 86%   Direction: 10°N
Pressure: 29.99"   Gusts: NA
Location:  43.64°N, 94.87°W
Report Text: KMJQ 251813Z AUTO 01009KT 10SM OVC007 M01/M03 A2999 RMK AO2
Loading
Personal Weather Stations






























Interactive Weather Map New forecast layout! Learn more

10-Day Weather Forecast

Advertisements
Track Severe Weather on mobile